Time;durP1;ratioP1;P1;durP2;ratioP2;P2;SDS_P1;SDS_P2;PMS_P1;PMS_P2;Temp;Humidity;BMP_temperature;BMP_pressure;BME280_temperature;BME280_humidity;BME280_pressure;Samples;Min_cycle;Max_cycle;Signal;HPM_P1;HPM_P2
2023/11/15 00:00:25;;;;;;;3.00;1.88;;;;;;;;;;1031222;28;20027;-72
2023/11/15 00:00:56;;;;;;;1.50;1.40;;;;;;;;;;1031305;28;20109;-72
2023/11/15 00:01:27;;;;;;;0.20;0.20;;;;;;;;;;1030952;28;20117;-73
2023/11/15 00:01:57;;;;;;;2.45;0.70;;;;;;;;;;1031129;28;20059;-73
2023/11/15 00:02:28;;;;;;;0.10;0.10;;;;;;;;;;1031383;28;20082;-73
2023/11/15 00:03:00;;;;;;;0.20;0.20;;;;;;;;;;1030898;28;20037;-72
2023/11/15 00:03:30;;;;;;;1.40;1.17;;;;;;;;;;1031901;28;20029;-73
2023/11/15 00:04:01;;;;;;;0.20;0.20;;;;;;;;;;1032015;28;20446;-73
2023/11/15 00:04:31;;;;;;;0.20;0.20;;;;;;;;;;1031898;28;20522;-74
2023/11/15 00:05:02;;;;;;;0.40;0.40;;;;;;;;;;1031954;28;20109;-72
2023/11/15 00:05:33;;;;;;;0.38;0.38;;;;;;;;;;1032163;28;21195;-73
2023/11/15 00:06:05;;;;;;;0.50;0.50;;;;;;;;;;1032165;28;20383;-73
2023/11/15 00:06:35;;;;;;;0.20;0.20;;;;;;;;;;1032108;28;20019;-73
2023/11/15 00:07:06;;;;;;;0.63;0.63;;;;;;;;;;1032366;28;20030;-72
2023/11/15 00:07:37;;;;;;;0.60;0.60;;;;;;;;;;1031476;28;20049;-74
2023/11/15 00:08:07;;;;;;;0.20;0.20;;;;;;;;;;1030803;28;20065;-73
2023/11/15 00:08:38;;;;;;;0.20;0.20;;;;;;;;;;1032143;28;20053;-72
2023/11/15 00:09:09;;;;;;;0.20;0.20;;;;;;;;;;1032322;28;20026;-72
2023/11/15 00:09:39;;;;;;;0.20;0.20;;;;;;;;;;1032088;28;20037;-73
2023/11/15 00:10:10;;;;;;;0.40;0.40;;;;;;;;;;1032376;28;20041;-71
2023/11/15 00:10:40;;;;;;;0.45;0.45;;;;;;;;;;1032033;28;20034;-72
2023/11/15 00:11:11;;;;;;;2.53;1.42;;;;;;;;;;1032137;28;20108;-73
2023/11/15 00:11:42;;;;;;;0.20;0.20;;;;;;;;;;1032001;28;20549;-72
2023/11/15 00:12:13;;;;;;;0.20;0.20;;;;;;;;;;1031831;28;20030;-73
2023/11/15 00:12:43;;;;;;;3.53;1.05;;;;;;;;;;1031559;28;20026;-73
2023/11/15 00:13:14;;;;;;;0.17;0.17;;;;;;;;;;1031194;28;20050;-71
2023/11/15 00:13:48;;;;;;;0.57;0.57;;;;;;;;;;1032158;28;20054;-73
2023/11/15 00:14:18;;;;;;;0.13;0.13;;;;;;;;;;1032282;28;20038;-73
2023/11/15 00:14:51;;;;;;;0.50;0.50;;;;;;;;;;1032157;28;20121;-73
2023/11/15 00:15:22;;;;;;;0.10;0.10;;;;;;;;;;1031713;28;20031;-73
2023/11/15 00:15:52;;;;;;;1.10;1.10;;;;;;;;;;1031179;28;20018;-74
2023/11/15 00:16:23;;;;;;;0.30;0.30;;;;;;;;;;1031694;28;20548;-73
2023/11/15 00:16:54;;;;;;;0.77;0.77;;;;;;;;;;1027758;28;20027;-73
2023/11/15 00:17:24;;;;;;;3.40;1.00;;;;;;;;;;1027956;28;20496;-72
2023/11/15 00:17:55;;;;;;;0.10;0.10;;;;;;;;;;1031896;28;20105;-72
2023/11/15 00:18:26;;;;;;;0.20;0.20;;;;;;;;;;1031928;28;20196;-73
2023/11/15 00:18:57;;;;;;;0.13;0.13;;;;;;;;;;1031980;28;20026;-72
2023/11/15 00:19:30;;;;;;;0.10;0.10;;;;;;;;;;1032108;28;20058;-73
2023/11/15 00:20:04;;;;;;;0.15;0.15;;;;;;;;;;1031767;28;20144;-74
2023/11/15 00:20:34;;;;;;;0.10;0.10;;;;;;;;;;1031743;28;20037;-73
2023/11/15 00:21:05;;;;;;;0.10;0.10;;;;;;;;;;1031809;28;20125;-73
2023/11/15 00:21:35;;;;;;;1.13;1.02;;;;;;;;;;1031738;28;20030;-73
2023/11/15 00:22:06;;;;;;;0.50;0.50;;;;;;;;;;1032327;28;20173;-72
2023/11/15 00:22:36;;;;;;;0.20;0.20;;;;;;;;;;1031360;28;20030;-73
2023/11/15 00:23:08;;;;;;;0.20;0.20;;;;;;;;;;1032276;28;20113;-73
2023/11/15 00:23:39;;;;;;;0.85;0.32;;;;;;;;;;1031712;28;20057;-72
2023/11/15 00:24:09;;;;;;;0.40;0.40;;;;;;;;;;1031972;28;20092;-72
2023/11/15 00:24:40;;;;;;;0.73;0.65;;;;;;;;;;1031637;28;20506;-72
2023/11/15 00:25:11;;;;;;;10.98;2.28;;;;;;;;;;1031903;28;20283;-74
2023/11/15 00:25:42;;;;;;;0.20;0.20;;;;;;;;;;1031430;28;20135;-72
2023/11/15 00:26:12;;;;;;;0.30;0.30;;;;;;;;;;1031591;28;20113;-72
2023/11/15 00:26:43;;;;;;;0.20;0.20;;;;;;;;;;1032040;28;20027;-73
2023/11/15 00:27:13;;;;;;;0.20;0.20;;;;;;;;;;1032127;28;20026;-73
2023/11/15 00:27:44;;;;;;;1.05;0.95;;;;;;;;;;1031083;28;20461;-72
2023/11/15 00:28:14;;;;;;;11.05;0.50;;;;;;;;;;1031096;28;20026;-73
2023/11/15 00:28:45;;;;;;;0.10;0.10;;;;;;;;;;1031998;28;20026;-73
2023/11/15 00:29:16;;;;;;;0.50;0.50;;;;;;;;;;1031886;28;20030;-73
2023/11/15 00:29:47;;;;;;;0.75;0.75;;;;;;;;;;1032124;28;20026;-73
2023/11/15 00:30:18;;;;;;;2.17;2.03;;;;;;;;;;1032178;28;20037;-74
2023/11/15 00:30:48;;;;;;;0.30;0.30;;;;;;;;;;1031995;28;20026;-73
2023/11/15 00:31:19;;;;;;;0.20;0.20;;;;;;;;;;1032059;28;20533;-73
2023/11/15 00:31:50;;;;;;;0.30;0.30;;;;;;;;;;1032015;28;20022;-73
2023/11/15 00:32:20;;;;;;;1.02;0.28;;;;;;;;;;1032160;28;20483;-74
2023/11/15 00:32:51;;;;;;;0.30;0.30;;;;;;;;;;1032109;28;20023;-71
2023/11/15 00:33:21;;;;;;;0.10;0.10;;;;;;;;;;1032272;28;20492;-74
2023/11/15 00:33:53;;;;;;;5.70;1.20;;;;;;;;;;1031633;28;20022;-70
2023/11/15 00:34:24;;;;;;;2.53;0.55;;;;;;;;;;1031783;28;20168;-74
2023/11/15 00:34:54;;;;;;;0.55;0.55;;;;;;;;;;1032160;28;20034;-73
2023/11/15 00:35:25;;;;;;;2.30;0.85;;;;;;;;;;1032044;28;20042;-73
2023/11/15 00:35:56;;;;;;;0.80;0.55;;;;;;;;;;1031989;28;20029;-73
2023/11/15 00:36:27;;;;;;;0.55;0.38;;;;;;;;;;1031935;28;20540;-73
2023/11/15 00:36:59;;;;;;;0.20;0.20;;;;;;;;;;1032092;28;20466;-72
2023/11/15 00:37:29;;;;;;;0.60;0.60;;;;;;;;;;1030395;28;20120;-74
2023/11/15 00:38:01;;;;;;;2.75;2.50;;;;;;;;;;1031684;28;20022;-72
2023/11/15 00:38:31;;;;;;;0.20;0.20;;;;;;;;;;1027698;28;20463;-74
2023/11/15 00:39:04;;;;;;;0.20;0.20;;;;;;;;;;1028688;28;20117;-72
2023/11/15 00:39:35;;;;;;;0.15;0.15;;;;;;;;;;1029375;28;20033;-74
2023/11/15 00:40:06;;;;;;;14.00;1.20;;;;;;;;;;1031196;28;20521;-72
2023/11/15 00:40:37;;;;;;;1.10;0.30;;;;;;;;;;1031640;28;20030;-72
2023/11/15 00:41:08;;;;;;;1.58;1.50;;;;;;;;;;1031381;28;20092;-73
2023/11/15 00:41:40;;;;;;;0.93;0.90;;;;;;;;;;1030434;28;20132;-73
2023/11/15 00:42:11;;;;;;;0.28;0.28;;;;;;;;;;1032120;28;20026;-73
2023/11/15 00:42:42;;;;;;;0.45;0.45;;;;;;;;;;1031685;28;20030;-72
2023/11/15 00:43:13;;;;;;;0.20;0.20;;;;;;;;;;1032198;28;20030;-74
2023/11/15 00:43:44;;;;;;;0.75;0.75;;;;;;;;;;1031864;28;20490;-72
2023/11/15 00:44:17;;;;;;;1.70;1.20;;;;;;;;;;1031486;28;20022;-73
2023/11/15 00:44:47;;;;;;;0.40;0.40;;;;;;;;;;1031722;28;20056;-73
2023/11/15 00:45:18;;;;;;;0.85;0.40;;;;;;;;;;1031847;28;20085;-72
2023/11/15 00:45:50;;;;;;;0.20;0.20;;;;;;;;;;1031210;28;20034;-74
2023/11/15 00:46:21;;;;;;;0.20;0.20;;;;;;;;;;1041712;23;20022;-72
2023/11/15 00:46:51;;;;;;;0.20;0.20;;;;;;;;;;1033850;28;20061;-74
2023/11/15 00:47:22;;;;;;;0.45;0.45;;;;;;;;;;1033804;28;20029;-72
2023/11/15 00:47:53;;;;;;;0.10;0.10;;;;;;;;;;1034171;28;20537;-73
2023/11/15 00:48:24;;;;;;;0.10;0.10;;;;;;;;;;1034094;28;20466;-74
2023/11/15 00:48:55;;;;;;;0.20;0.20;;;;;;;;;;1033931;28;20072;-72
2023/11/15 00:49:26;;;;;;;0.20;0.20;;;;;;;;;;1033575;28;20022;-73
2023/11/15 00:49:56;;;;;;;0.20;0.20;;;;;;;;;;1033474;28;20120;-73
2023/11/15 00:50:27;;;;;;;0.20;0.20;;;;;;;;;;1033836;28;20486;-72
2023/11/15 00:50:58;;;;;;;0.38;0.38;;;;;;;;;;1033738;28;20030;-73
2023/11/15 00:51:28;;;;;;;0.50;0.50;;;;;;;;;;1037716;28;20100;-73
2023/11/15 00:51:59;;;;;;;0.15;0.15;;;;;;;;;;1037691;28;20026;-73
2023/11/15 00:52:30;;;;;;;0.55;0.55;;;;;;;;;;1032967;28;20387;-72
2023/11/15 00:53:02;;;;;;;0.15;0.15;;;;;;;;;;1037869;28;20490;-72
2023/11/15 00:53:33;;;;;;;0.20;0.20;;;;;;;;;;1033449;28;20018;-73
2023/11/15 00:54:06;;;;;;;0.13;0.13;;;;;;;;;;1033903;28;20037;-73
2023/11/15 00:54:36;;;;;;;0.35;0.35;;;;;;;;;;1034761;28;20524;-71
2023/11/15 00:55:07;;;;;;;0.20;0.20;;;;;;;;;;1033828;28;20057;-73
2023/11/15 00:55:38;;;;;;;0.40;0.40;;;;;;;;;;1033767;28;20037;-73
2023/11/15 00:56:08;;;;;;;0.40;0.40;;;;;;;;;;1037745;28;20046;-73
2023/11/15 00:56:39;;;;;;;0.50;0.50;;;;;;;;;;1037632;28;20064;-73
2023/11/15 00:57:10;;;;;;;0.10;0.10;;;;;;;;;;1033807;28;20030;-73
2023/11/15 00:57:40;;;;;;;0.20;0.20;;;;;;;;;;1035255;28;20030;-72
2023/11/15 00:58:11;;;;;;;0.20;0.20;;;;;;;;;;1035840;28;20076;-72
2023/11/15 00:58:41;;;;;;;0.55;0.40;;;;;;;;;;1035558;28;20032;-72
2023/11/15 00:59:12;;;;;;;1.05;0.95;;;;;;;;;;1039669;28;20021;-72
2023/11/15 00:59:47;;;;;;;0.10;0.10;;;;;;;;;;1034669;28;20077;-72
2023/11/15 01:00:23;;;;;;;0.10;0.10;;;;;;;;;;1033401;28;20025;-73
2023/11/15 01:00:55;;;;;;;2.35;1.25;;;;;;;;;;1033440;28;20529;-72
2023/11/15 01:01:27;;;;;;;0.20;0.20;;;;;;;;;;1029439;28;20081;-73
2023/11/15 01:01:57;;;;;;;0.40;0.40;;;;;;;;;;1030852;28;20041;-73
2023/11/15 01:02:32;;;;;;;0.10;0.10;;;;;;;;;;1033583;28;20032;-73
2023/11/15 01:03:03;;;;;;;0.20;0.20;;;;;;;;;;1033299;28;20017;-73
2023/11/15 01:03:33;;;;;;;0.10;0.10;;;;;;;;;;1033722;28;20037;-74
2023/11/15 01:04:05;;;;;;;0.10;0.10;;;;;;;;;;1034249;28;20400;-73
2023/11/15 01:04:36;;;;;;;0.10;0.10;;;;;;;;;;1033891;28;20028;-73
2023/11/15 01:05:06;;;;;;;0.10;0.10;;;;;;;;;;1034158;28;20036;-73
2023/11/15 01:05:37;;;;;;;0.88;0.50;;;;;;;;;;1033541;28;20026;-73
2023/11/15 01:06:07;;;;;;;0.10;0.10;;;;;;;;;;1032895;28;20080;-72
2023/11/15 01:06:38;;;;;;;0.25;0.25;;;;;;;;;;1034802;28;20068;-72
2023/11/15 01:07:08;;;;;;;1.45;1.35;;;;;;;;;;1034089;28;20026;-72
2023/11/15 01:07:39;;;;;;;9.43;1.63;;;;;;;;;;1033376;28;20062;-72
2023/11/15 01:08:10;;;;;;;0.57;0.57;;;;;;;;;;1034097;28;20129;-72
2023/11/15 01:08:41;;;;;;;1.40;0.60;;;;;;;;;;1033447;28;20029;-72
2023/11/15 01:09:11;;;;;;;2.65;0.88;;;;;;;;;;1034205;28;20018;-72
2023/11/15 01:09:42;;;;;;;2.88;1.63;;;;;;;;;;1033202;28;20029;-72
2023/11/15 01:10:13;;;;;;;1.08;0.77;;;;;;;;;;1033819;28;20033;-72
2023/11/15 01:10:44;;;;;;;0.57;0.57;;;;;;;;;;1033767;28;20455;-72
2023/11/15 01:11:14;;;;;;;0.20;0.20;;;;;;;;;;1033817;28;20029;-72
2023/11/15 01:11:45;;;;;;;0.45;0.45;;;;;;;;;;1033881;28;20382;-72
2023/11/15 01:12:16;;;;;;;0.20;0.20;;;;;;;;;;1033968;28;20026;-72
2023/11/15 01:12:46;;;;;;;0.20;0.20;;;;;;;;;;1033784;28;20066;-72
2023/11/15 01:13:17;;;;;;;4.07;1.35;;;;;;;;;;1034321;28;20057;-72
2023/11/15 01:13:48;;;;;;;1.80;0.88;;;;;;;;;;1033779;28;20022;-72
2023/11/15 01:14:19;;;;;;;0.82;0.38;;;;;;;;;;1033464;28;20044;-72
2023/11/15 01:14:49;;;;;;;1.52;1.42;;;;;;;;;;1033930;28;20034;-72
2023/11/15 01:15:21;;;;;;;0.80;0.25;;;;;;;;;;1033976;28;20052;-72
2023/11/15 01:15:52;;;;;;;1.65;0.95;;;;;;;;;;1033389;28;20022;-72
2023/11/15 01:16:23;;;;;;;1.85;1.75;;;;;;;;;;1034617;28;20025;-72
2023/11/15 01:16:54;;;;;;;0.50;0.50;;;;;;;;;;1037603;28;20037;-72
2023/11/15 01:17:25;;;;;;;1.42;1.33;;;;;;;;;;1037291;28;20412;-72
2023/11/15 01:17:57;;;;;;;1.08;0.90;;;;;;;;;;1037274;28;20058;-72
2023/11/15 01:18:29;;;;;;;1.60;1.50;;;;;;;;;;1037439;28;20045;-72
2023/11/15 01:19:00;;;;;;;4.65;1.75;;;;;;;;;;1032775;28;20073;-72
2023/11/15 01:19:31;;;;;;;2.53;1.90;;;;;;;;;;1033615;28;20029;-72
2023/11/15 01:20:03;;;;;;;0.20;0.20;;;;;;;;;;1033512;28;20460;-73
2023/11/15 01:20:34;;;;;;;0.10;0.10;;;;;;;;;;1036901;28;20025;-72
2023/11/15 01:21:05;;;;;;;0.77;0.40;;;;;;;;;;1037755;28;20536;-72
2023/11/15 01:21:36;;;;;;;0.57;0.52;;;;;;;;;;1033077;28;20433;-72
2023/11/15 01:22:07;;;;;;;0.10;0.10;;;;;;;;;;1033862;28;20125;-72
2023/11/15 01:22:37;;;;;;;30.30;1.25;;;;;;;;;;1031816;28;20022;-71
2023/11/15 01:23:09;;;;;;;2.28;0.60;;;;;;;;;;1032956;28;20234;-71
2023/11/15 01:23:40;;;;;;;0.10;0.10;;;;;;;;;;1037540;28;20456;-72
2023/11/15 01:24:11;;;;;;;0.82;0.77;;;;;;;;;;1037833;28;20046;-72
2023/11/15 01:24:41;;;;;;;0.60;0.57;;;;;;;;;;1037572;28;20034;-72
2023/11/15 01:25:14;;;;;;;1.48;1.27;;;;;;;;;;1036896;28;20124;-72
2023/11/15 01:25:44;;;;;;;3.90;1.20;;;;;;;;;;1034097;28;20034;-72
2023/11/15 01:26:15;;;;;;;1.58;0.68;;;;;;;;;;1033188;28;20050;-72
2023/11/15 01:26:46;;;;;;;0.20;0.20;;;;;;;;;;1033757;28;20466;-73
2023/11/15 01:27:17;;;;;;;2.72;2.10;;;;;;;;;;1033419;28;20038;-72
2023/11/15 01:27:48;;;;;;;1.23;1.13;;;;;;;;;;1032360;28;20116;-72
2023/11/15 01:28:18;;;;;;;1.98;1.80;;;;;;;;;;1033441;28;20035;-72
2023/11/15 01:28:50;;;;;;;0.20;0.20;;;;;;;;;;1033685;28;20072;-72
2023/11/15 01:29:21;;;;;;;1.27;0.63;;;;;;;;;;1034356;28;20035;-71
2023/11/15 01:29:52;;;;;;;1.02;0.55;;;;;;;;;;1033766;28;20409;-71
2023/11/15 01:30:23;;;;;;;0.73;0.40;;;;;;;;;;1032780;28;20026;-72
2023/11/15 01:30:54;;;;;;;1.08;0.70;;;;;;;;;;1032467;28;20026;-72
2023/11/15 01:31:25;;;;;;;0.43;0.43;;;;;;;;;;1032417;28;20026;-72
2023/11/15 01:31:55;;;;;;;0.20;0.20;;;;;;;;;;1037176;28;20114;-72
2023/11/15 01:32:26;;;;;;;1.35;1.20;;;;;;;;;;1036858;28;20038;-72
2023/11/15 01:32:57;;;;;;;6.00;1.80;;;;;;;;;;1037219;28;20063;-72
2023/11/15 01:33:31;;;;;;;0.17;0.17;;;;;;;;;;1033454;28;20120;-73
2023/11/15 01:34:03;;;;;;;0.57;0.57;;;;;;;;;;1033758;28;20040;-72
2023/11/15 01:34:33;;;;;;;0.68;0.68;;;;;;;;;;1033273;28;20032;-75
2023/11/15 01:35:08;;;;;;;3.00;1.85;;;;;;;;;;1031292;28;20064;-72
2023/11/15 01:35:38;;;;;;;0.35;0.35;;;;;;;;;;1034892;28;20038;-72
2023/11/15 01:36:09;;;;;;;3.28;1.58;;;;;;;;;;1034749;28;20069;-72
2023/11/15 01:36:39;;;;;;;2.90;0.65;;;;;;;;;;1034559;28;20057;-73
2023/11/15 01:37:11;;;;;;;1.52;0.85;;;;;;;;;;1035993;28;20496;-72
2023/11/15 01:37:43;;;;;;;3.92;2.25;;;;;;;;;;1032738;28;20037;-73
2023/11/15 01:38:16;;;;;;;6.60;4.00;;;;;;;;;;1032952;28;20534;-73
2023/11/15 01:38:47;;;;;;;0.22;0.20;;;;;;;;;;1031175;28;20117;-72
2023/11/15 01:39:20;;;;;;;5.85;1.35;;;;;;;;;;1029121;28;20545;-72
2023/11/15 01:39:51;;;;;;;3.20;1.25;;;;;;;;;;1029340;28;20030;-71
2023/11/15 01:40:22;;;;;;;4.82;2.53;;;;;;;;;;1031163;28;20117;-71
2023/11/15 01:40:53;;;;;;;3.53;2.80;;;;;;;;;;1034765;28;20398;-72
2023/11/15 01:41:23;;;;;;;5.20;2.55;;;;;;;;;;1034349;28;20236;-72
2023/11/15 01:41:56;;;;;;;5.50;1.83;;;;;;;;;;1034595;28;20156;-72
2023/11/15 01:42:26;;;;;;;2.83;2.58;;;;;;;;;;1034043;28;20403;-72
2023/11/15 01:42:58;;;;;;;2.58;2.05;;;;;;;;;;1032676;28;20042;-72
2023/11/15 01:43:29;;;;;;;0.60;0.60;;;;;;;;;;1032444;28;20021;-72
2023/11/15 01:43:59;;;;;;;4.25;2.15;;;;;;;;;;1034348;28;20018;-72
2023/11/15 01:44:30;;;;;;;2.58;2.35;;;;;;;;;;1034835;28;20057;-72
2023/11/15 01:45:02;;;;;;;2.80;0.98;;;;;;;;;;1033148;28;20482;-73
2023/11/15 01:45:33;;;;;;;0.90;0.85;;;;;;;;;;1032890;28;20026;-72
2023/11/15 01:46:04;;;;;;;1.08;0.98;;;;;;;;;;1034070;28;21235;-72
2023/11/15 01:46:34;;;;;;;3.92;1.48;;;;;;;;;;1033435;28;20238;-73
2023/11/15 01:47:05;;;;;;;0.25;0.25;;;;;;;;;;1034143;28;20048;-72
2023/11/15 01:47:35;;;;;;;5.50;1.23;;;;;;;;;;1034121;28;20053;-72
2023/11/15 01:48:06;;;;;;;2.53;1.27;;;;;;;;;;1033587;28;20498;-72
2023/11/15 01:48:37;;;;;;;3.40;1.83;;;;;;;;;;1034507;28;20371;-72
2023/11/15 01:49:08;;;;;;;0.82;0.60;;;;;;;;;;1034006;28;20496;-72
2023/11/15 01:49:39;;;;;;;0.88;0.75;;;;;;;;;;1034186;28;20485;-72
2023/11/15 01:50:13;;;;;;;0.82;0.82;;;;;;;;;;1033222;28;21201;-72
2023/11/15 01:50:47;;;;;;;1.80;1.50;;;;;;;;;;1033928;28;20129;-71
2023/11/15 01:51:18;;;;;;;3.70;1.58;;;;;;;;;;1031599;28;20026;-72
2023/11/15 01:51:52;;;;;;;1.88;1.75;;;;;;;;;;1033363;28;20634;-72
2023/11/15 01:52:24;;;;;;;5.28;2.15;;;;;;;;;;1031988;28;20029;-71
2023/11/15 01:53:00;;;;;;;1.35;1.05;;;;;;;;;;1033826;28;20030;-71
2023/11/15 01:53:31;;;;;;;3.65;2.08;;;;;;;;;;1033557;28;20215;-71
2023/11/15 01:54:01;;;;;;;4.82;3.55;;;;;;;;;;1034235;28;20036;-71
2023/11/15 01:54:32;;;;;;;1.65;0.80;;;;;;;;;;1032818;28;20376;-72
2023/11/15 01:55:06;;;;;;;5.45;2.33;;;;;;;;;;1038202;28;20061;-72
2023/11/15 01:55:37;;;;;;;1.92;1.80;;;;;;;;;;1032295;28;20049;-72
2023/11/15 01:56:08;;;;;;;8.50;3.50;;;;;;;;;;1037266;28;20013;-72
2023/11/15 01:56:39;;;;;;;5.68;2.17;;;;;;;;;;1034889;28;20026;-74
2023/11/15 01:57:10;;;;;;;10.63;4.32;;;;;;;;;;1032830;28;20410;-73
2023/11/15 01:57:41;;;;;;;14.65;3.75;;;;;;;;;;1037209;28;20080;-73
2023/11/15 01:58:13;;;;;;;21.90;3.20;;;;;;;;;;1037027;28;20122;-73
2023/11/15 01:58:44;;;;;;;6.65;2.78;;;;;;;;;;1031788;28;20018;-73
2023/11/15 01:59:15;;;;;;;1.13;0.63;;;;;;;;;;1031937;28;20069;-73
2023/11/15 01:59:45;;;;;;;2.33;1.80;;;;;;;;;;1033560;28;20022;-73
2023/11/15 02:00:16;;;;;;;2.33;2.08;;;;;;;;;;1033437;28;20034;-73
2023/11/15 02:00:47;;;;;;;7.05;3.63;;;;;;;;;;1032506;28;20134;-73
2023/11/15 02:01:18;;;;;;;3.13;2.05;;;;;;;;;;1031879;28;20026;-73
2023/11/15 02:01:51;;;;;;;4.18;1.77;;;;;;;;;;1030988;28;20017;-72
2023/11/15 02:02:21;;;;;;;8.07;3.42;;;;;;;;;;1031897;28;20645;-72
2023/11/15 02:02:52;;;;;;;1.75;1.13;;;;;;;;;;1032352;28;20169;-72
2023/11/15 02:03:23;;;;;;;1.90;1.75;;;;;;;;;;1031283;28;20032;-72
2023/11/15 02:03:53;;;;;;;12.15;2.60;;;;;;;;;;1031769;28;20022;-72
2023/11/15 02:04:24;;;;;;;3.00;2.50;;;;;;;;;;1027663;28;20031;-72
2023/11/15 02:04:54;;;;;;;4.50;3.35;;;;;;;;;;1029044;28;20790;-73
2023/11/15 02:05:28;;;;;;;3.47;2.55;;;;;;;;;;1029877;28;20030;-73
2023/11/15 02:05:59;;;;;;;1.92;1.42;;;;;;;;;;1028227;28;20015;-72
2023/11/15 02:06:30;;;;;;;2.95;2.15;;;;;;;;;;1029774;28;20030;-73
2023/11/15 02:07:01;;;;;;;1.20;1.10;;;;;;;;;;1028067;28;20074;-73
2023/11/15 02:07:31;;;;;;;3.30;3.03;;;;;;;;;;1027875;28;20026;-72
2023/11/15 02:08:03;;;;;;;0.43;0.43;;;;;;;;;;1032468;28;20029;-72
2023/11/15 02:08:33;;;;;;;3.13;2.83;;;;;;;;;;1034939;28;20032;-72
2023/11/15 02:09:08;;;;;;;5.05;1.92;;;;;;;;;;1035937;28;20022;-72
2023/11/15 02:09:41;;;;;;;7.68;1.65;;;;;;;;;;1030663;28;20081;-72
2023/11/15 02:10:13;;;;;;;2.15;1.70;;;;;;;;;;1032046;28;20022;-72
2023/11/15 02:10:44;;;;;;;0.77;0.77;;;;;;;;;;1032663;28;20474;-72
2023/11/15 02:11:14;;;;;;;1.55;1.45;;;;;;;;;;1033105;28;20026;-72
2023/11/15 02:11:45;;;;;;;1.25;1.25;;;;;;;;;;1031855;28;20164;-73
2023/11/15 02:12:15;;;;;;;7.85;1.33;;;;;;;;;;1030851;28;20045;-73
2023/11/15 02:12:46;;;;;;;0.70;0.70;;;;;;;;;;1030051;28;20036;-74
2023/11/15 02:13:21;;;;;;;2.00;1.45;;;;;;;;;;1025665;28;20453;-72
2023/11/15 02:13:52;;;;;;;6.90;2.70;;;;;;;;;;1030190;28;20053;-72
2023/11/15 02:14:22;;;;;;;5.32;1.55;;;;;;;;;;1031567;28;20041;-72
2023/11/15 02:14:53;;;;;;;2.45;2.25;;;;;;;;;;1033034;28;20026;-72
2023/11/15 02:15:25;;;;;;;0.85;0.75;;;;;;;;;;1030531;28;20399;-72
2023/11/15 02:15:58;;;;;;;9.75;1.98;;;;;;;;;;1032789;28;20026;-72
2023/11/15 02:16:29;;;;;;;6.40;4.63;;;;;;;;;;1032879;28;20041;-72
2023/11/15 02:16:59;;;;;;;4.80;2.15;;;;;;;;;;1032037;28;20417;-72
2023/11/15 02:17:32;;;;;;;6.15;2.72;;;;;;;;;;1031838;28;20105;-72
2023/11/15 02:18:05;;;;;;;2.78;1.70;;;;;;;;;;1034462;28;20018;-72
2023/11/15 02:18:35;;;;;;;1.30;1.20;;;;;;;;;;1031388;28;20216;-72
2023/11/15 02:19:07;;;;;;;2.35;2.20;;;;;;;;;;1030416;28;20507;-72
2023/11/15 02:19:38;;;;;;;2.08;1.75;;;;;;;;;;1030420;28;20034;-72
2023/11/15 02:20:10;;;;;;;1.10;1.10;;;;;;;;;;1032466;28;20044;-72
2023/11/15 02:20:41;;;;;;;0.55;0.55;;;;;;;;;;1032449;28;20049;-72
2023/11/15 02:21:12;;;;;;;0.88;0.88;;;;;;;;;;1028228;28;20034;-74
2023/11/15 02:21:43;;;;;;;2.47;2.28;;;;;;;;;;1026069;28;20022;-71
2023/11/15 02:22:14;;;;;;;2.70;1.35;;;;;;;;;;1028909;28;20225;-71
2023/11/15 02:22:46;;;;;;;8.43;2.85;;;;;;;;;;1029344;28;20265;-71
2023/11/15 02:23:21;;;;;;;6.93;3.33;;;;;;;;;;1034627;28;20104;-71
2023/11/15 02:23:51;;;;;;;1.70;0.82;;;;;;;;;;1036073;28;20029;-71
2023/11/15 02:24:22;;;;;;;1.38;1.02;;;;;;;;;;1034210;28;20512;-71
2023/11/15 02:24:53;;;;;;;2.25;2.05;;;;;;;;;;1032907;28;20030;-73
2023/11/15 02:25:23;;;;;;;1.88;1.77;;;;;;;;;;1035611;28;20032;-72
2023/11/15 02:25:54;;;;;;;2.05;1.90;;;;;;;;;;1035918;28;20053;-72
2023/11/15 02:26:25;;;;;;;2.88;1.95;;;;;;;;;;1034704;28;20025;-72
2023/11/15 02:26:55;;;;;;;5.15;3.60;;;;;;;;;;1034407;28;20108;-72
2023/11/15 02:27:26;;;;;;;1.90;1.67;;;;;;;;;;1026394;28;20638;-71
2023/11/15 02:28:01;;;;;;;0.85;0.77;;;;;;;;;;1029036;28;20026;-71
2023/11/15 02:28:35;;;;;;;4.07;2.95;;;;;;;;;;1027533;28;20141;-72
2023/11/15 02:29:06;;;;;;;12.07;0.88;;;;;;;;;;1029699;28;20035;-71
2023/11/15 02:29:38;;;;;;;1.88;1.77;;;;;;;;;;1032122;28;20045;-71
2023/11/15 02:30:09;;;;;;;1.52;1.42;;;;;;;;;;1027683;28;20022;-71
2023/11/15 02:30:40;;;;;;;2.60;1.98;;;;;;;;;;1027077;28;20046;-71
2023/11/15 02:31:11;;;;;;;3.22;2.80;;;;;;;;;;1022101;28;20028;-71
2023/11/15 02:31:42;;;;;;;0.43;0.43;;;;;;;;;;1026615;28;20112;-71
2023/11/15 02:32:13;;;;;;;0.30;0.30;;;;;;;;;;1026799;28;20523;-72
2023/11/15 02:32:44;;;;;;;3.03;1.88;;;;;;;;;;1028255;28;20085;-72
2023/11/15 02:33:15;;;;;;;0.40;0.40;;;;;;;;;;1030003;28;20022;-72
2023/11/15 02:33:46;;;;;;;0.52;0.52;;;;;;;;;;1027742;28;20022;-71
2023/11/15 02:34:18;;;;;;;1.27;1.20;;;;;;;;;;1031884;28;20034;-71
2023/11/15 02:34:48;;;;;;;3.35;2.70;;;;;;;;;;1033409;28;20042;-71
2023/11/15 02:35:19;;;;;;;4.88;3.30;;;;;;;;;;1030802;28;20028;-72
2023/11/15 02:35:50;;;;;;;2.17;2.00;;;;;;;;;;1031368;28;20048;-71
2023/11/15 02:36:20;;;;;;;1.55;1.02;;;;;;;;;;1032530;28;20463;-71
2023/11/15 02:36:51;;;;;;;1.80;1.70;;;;;;;;;;1032091;28;20018;-71
2023/11/15 02:37:22;;;;;;;1.17;1.08;;;;;;;;;;1031671;28;20026;-72
2023/11/15 02:37:52;;;;;;;13.32;3.22;;;;;;;;;;1032636;28;20029;-72
2023/11/15 02:38:23;;;;;;;0.93;0.77;;;;;;;;;;1031644;28;20120;-72
2023/11/15 02:38:54;;;;;;;1.98;1.63;;;;;;;;;;1032088;28;20277;-72
2023/11/15 02:39:26;;;;;;;11.02;2.58;;;;;;;;;;1031880;28;20108;-72
2023/11/15 02:39:57;;;;;;;21.35;2.25;;;;;;;;;;1035436;28;20025;-72
2023/11/15 02:40:28;;;;;;;3.90;2.20;;;;;;;;;;1031763;28;20095;-72
2023/11/15 02:40:59;;;;;;;1.65;1.55;;;;;;;;;;1028052;28;20052;-72
2023/11/15 02:41:30;;;;;;;4.75;4.35;;;;;;;;;;1021988;28;21495;-72
2023/11/15 02:42:01;;;;;;;10.70;2.55;;;;;;;;;;1026018;28;20388;-71
2023/11/15 02:42:32;;;;;;;2.20;1.88;;;;;;;;;;1029983;28;20058;-72
2023/11/15 02:43:05;;;;;;;1.35;1.25;;;;;;;;;;1029411;28;20418;-72
2023/11/15 02:43:35;;;;;;;1.42;1.30;;;;;;;;;;1031553;28;20057;-72
2023/11/15 02:44:06;;;;;;;0.75;0.75;;;;;;;;;;1031832;28;20429;-72
2023/11/15 02:44:36;;;;;;;1.08;0.70;;;;;;;;;;1030263;28;20059;-72
2023/11/15 02:45:07;;;;;;;24.10;2.50;;;;;;;;;;1030702;28;20120;-72
2023/11/15 02:45:38;;;;;;;2.72;2.08;;;;;;;;;;1030839;28;20041;-73
2023/11/15 02:46:08;;;;;;;2.20;2.08;;;;;;;;;;1030999;28;20107;-72
2023/11/15 02:46:39;;;;;;;2.22;1.38;;;;;;;;;;1031649;28;20021;-72
2023/11/15 02:47:10;;;;;;;0.82;0.82;;;;;;;;;;1032328;28;20030;-72
2023/11/15 02:47:40;;;;;;;3.53;1.88;;;;;;;;;;1030841;28;20137;-72
2023/11/15 02:48:11;;;;;;;0.88;0.88;;;;;;;;;;1031724;28;21446;-72
2023/11/15 02:48:42;;;;;;;1.02;0.98;;;;;;;;;;1029097;28;20034;-72
2023/11/15 02:49:12;;;;;;;6.68;3.55;;;;;;;;;;1022834;28;20070;-73
2023/11/15 02:49:45;;;;;;;2.40;2.25;;;;;;;;;;1026496;28;20652;-72
2023/11/15 02:50:16;;;;;;;9.02;3.60;;;;;;;;;;1023525;28;20026;-72
2023/11/15 02:50:46;;;;;;;5.88;1.48;;;;;;;;;;1027551;28;20022;-73
2023/11/15 02:51:18;;;;;;;3.45;1.73;;;;;;;;;;1029962;28;20080;-72
2023/11/15 02:51:50;;;;;;;1.55;1.38;;;;;;;;;;1032506;28;20026;-72
2023/11/15 02:52:20;;;;;;;1.33;0.98;;;;;;;;;;1030578;28;20140;-72
2023/11/15 02:52:52;;;;;;;1.50;1.42;;;;;;;;;;1031140;28;20121;-72
2023/11/15 02:53:22;;;;;;;1.83;1.73;;;;;;;;;;1031060;28;20021;-72
2023/11/15 02:53:54;;;;;;;1.02;0.80;;;;;;;;;;1031862;28;20382;-71
2023/11/15 02:54:26;;;;;;;8.30;1.67;;;;;;;;;;1031313;28;20033;-72
2023/11/15 02:54:58;;;;;;;2.22;1.85;;;;;;;;;;1032639;28;20030;-72
2023/11/15 02:55:31;;;;;;;7.03;2.65;;;;;;;;;;1030781;28;20087;-72
2023/11/15 02:56:03;;;;;;;0.43;0.43;;;;;;;;;;1029612;28;20034;-72
2023/11/15 02:56:34;;;;;;;2.83;2.63;;;;;;;;;;1029930;28;20049;-72
2023/11/15 02:57:05;;;;;;;4.63;1.27;;;;;;;;;;1028297;28;20022;-72
2023/11/15 02:57:36;;;;;;;1.45;1.35;;;;;;;;;;1025475;28;20022;-73
2023/11/15 02:58:06;;;;;;;0.68;0.68;;;;;;;;;;1026912;28;20303;-72
2023/11/15 02:58:37;;;;;;;0.20;0.20;;;;;;;;;;1029029;28;20073;-72
2023/11/15 02:59:08;;;;;;;5.65;2.55;;;;;;;;;;1031505;28;20033;-74
2023/11/15 02:59:38;;;;;;;0.93;0.68;;;;;;;;;;1035188;28;20032;-72
2023/11/15 03:00:10;;;;;;;0.85;0.80;;;;;;;;;;1036041;28;20030;-73
2023/11/15 03:00:42;;;;;;;0.45;0.43;;;;;;;;;;1032068;28;20068;-73
2023/11/15 03:01:13;;;;;;;0.10;0.10;;;;;;;;;;1028761;28;20057;-73
2023/11/15 03:01:47;;;;;;;0.90;0.77;;;;;;;;;;1021358;28;20528;-72
2023/11/15 03:02:17;;;;;;;0.85;0.77;;;;;;;;;;1021373;28;20018;-73
2023/11/15 03:02:49;;;;;;;0.90;0.63;;;;;;;;;;1025177;28;20513;-74
2023/11/15 03:03:20;;;;;;;9.13;2.88;;;;;;;;;;1025803;28;20029;-74
2023/11/15 03:03:50;;;;;;;0.57;0.52;;;;;;;;;;1027008;28;20128;-74
2023/11/15 03:04:22;;;;;;;1.55;0.47;;;;;;;;;;1030269;28;20038;-75
2023/11/15 03:04:53;;;;;;;0.50;0.50;;;;;;;;;;1031392;28;20253;-71
2023/11/15 03:05:24;;;;;;;2.92;0.55;;;;;;;;;;1035432;28;20029;-75
2023/11/15 03:05:55;;;;;;;4.28;2.17;;;;;;;;;;1030974;28;20022;-73
2023/11/15 03:06:26;;;;;;;0.95;0.85;;;;;;;;;;1029477;28;20410;-74
2023/11/15 03:06:57;;;;;;;0.70;0.45;;;;;;;;;;1027340;28;20026;-73